sensor_id;sensor_type;location;lat;lon;timestamp;pressure;altitude;pressure_sealevel;temperature;humidity
79150;BME280;68563;45.644;13.782;2023-09-08T00:02:06;101328.00;;;24.19;39.28
79150;BME280;68563;45.644;13.782;2023-09-08T00:04:31;101327.06;;;24.20;39.32
79150;BME280;68563;45.644;13.782;2023-09-08T00:06:58;101331.69;;;24.16;39.49
79150;BME280;68563;45.644;13.782;2023-09-08T00:09:23;101330.91;;;24.14;39.44
79150;BME280;68563;45.644;13.782;2023-09-08T00:11:49;101343.38;;;24.12;39.72
79150;BME280;68563;45.644;13.782;2023-09-08T00:14:14;101340.06;;;24.09;39.64
79150;BME280;68563;45.644;13.782;2023-09-08T00:16:40;101340.94;;;24.09;39.67
79150;BME280;68563;45.644;13.782;2023-09-08T00:19:08;101341.50;;;24.14;39.43
79150;BME280;68563;45.644;13.782;2023-09-08T00:21:33;101328.28;;;24.14;39.62
79150;BME280;68563;45.644;13.782;2023-09-08T00:23:59;101340.16;;;24.07;39.86
79150;BME280;68563;45.644;13.782;2023-09-08T00:26:26;101388.63;;;24.08;40.00
79150;BME280;68563;45.644;13.782;2023-09-08T00:28:51;101360.19;;;24.11;39.88
79150;BME280;68563;45.644;13.782;2023-09-08T00:31:16;101319.78;;;24.09;39.93
79150;BME280;68563;45.644;13.782;2023-09-08T00:33:42;101331.66;;;24.02;40.03
79150;BME280;68563;45.644;13.782;2023-09-08T00:36:09;101344.69;;;24.05;39.95
79150;BME280;68563;45.644;13.782;2023-09-08T00:38:35;101372.38;;;23.99;40.09
79150;BME280;68563;45.644;13.782;2023-09-08T00:41:00;101343.44;;;23.96;40.17
79150;BME280;68563;45.644;13.782;2023-09-08T00:43:26;101337.22;;;23.97;40.24
79150;BME280;68563;45.644;13.782;2023-09-08T00:45:52;101360.94;;;23.99;40.10
79150;BME280;68563;45.644;13.782;2023-09-08T00:48:19;101337.22;;;23.97;40.26
79150;BME280;68563;45.644;13.782;2023-09-08T00:50:45;101335.59;;;23.95;39.99
79150;BME280;68563;45.644;13.782;2023-09-08T00:53:10;101315.13;;;23.98;40.03
79150;BME280;68563;45.644;13.782;2023-09-08T00:55:36;101338.00;;;23.99;40.22
79150;BME280;68563;45.644;13.782;2023-09-08T00:58:02;101316.63;;;24.02;40.02
79150;BME280;68563;45.644;13.782;2023-09-08T01:00:27;101324.75;;;23.99;40.21
79150;BME280;68563;45.644;13.782;2023-09-08T01:02:53;101320.31;;;24.00;40.12
79150;BME280;68563;45.644;13.782;2023-09-08T01:05:19;101324.56;;;24.02;40.20
79150;BME280;68563;45.644;13.782;2023-09-08T01:07:46;101327.41;;;23.99;40.28
79150;BME280;68563;45.644;13.782;2023-09-08T01:10:13;101342.50;;;23.97;40.21
79150;BME280;68563;45.644;13.782;2023-09-08T01:12:38;101303.09;;;23.93;40.43
79150;BME280;68563;45.644;13.782;2023-09-08T01:15:05;101330.31;;;23.95;40.55
79150;BME280;68563;45.644;13.782;2023-09-08T01:17:31;101330.66;;;23.88;40.51
79150;BME280;68563;45.644;13.782;2023-09-08T01:20:01;101326.09;;;23.90;40.82
79150;BME280;68563;45.644;13.782;2023-09-08T01:27:32;101314.28;;;23.82;40.87
79150;BME280;68563;45.644;13.782;2023-09-08T01:29:59;101311.88;;;23.77;41.10
79150;BME280;68563;45.644;13.782;2023-09-08T01:32:28;101326.25;;;23.73;41.11
79150;BME280;68563;45.644;13.782;2023-09-08T01:34:56;101309.50;;;23.72;41.10
79150;BME280;68563;45.644;13.782;2023-09-08T01:37:23;101296.03;;;23.77;41.00
79150;BME280;68563;45.644;13.782;2023-09-08T01:39:49;101294.50;;;23.73;41.12
79150;BME280;68563;45.644;13.782;2023-09-08T01:42:14;101320.75;;;23.76;40.85
79150;BME280;68563;45.644;13.782;2023-09-08T01:44:40;101299.91;;;23.71;41.20
79150;BME280;68563;45.644;13.782;2023-09-08T01:47:05;101315.84;;;23.70;41.00
79150;BME280;68563;45.644;13.782;2023-09-08T01:49:31;101302.19;;;23.62;41.23
79150;BME280;68563;45.644;13.782;2023-09-08T01:51:56;101306.97;;;23.71;40.96
79150;BME280;68563;45.644;13.782;2023-09-08T01:54:22;101316.50;;;23.73;41.05
79150;BME280;68563;45.644;13.782;2023-09-08T01:56:47;101310.28;;;23.74;41.22
79150;BME280;68563;45.644;13.782;2023-09-08T01:59:12;101291.59;;;23.78;40.99
79150;BME280;68563;45.644;13.782;2023-09-08T02:01:38;101316.50;;;23.73;40.78
79150;BME280;68563;45.644;13.782;2023-09-08T02:04:03;101326.81;;;23.78;40.79
79150;BME280;68563;45.644;13.782;2023-09-08T02:06:29;101297.06;;;23.74;40.98
79150;BME280;68563;45.644;13.782;2023-09-08T02:08:54;101325.31;;;23.74;41.30
79150;BME280;68563;45.644;13.782;2023-09-08T02:11:20;101287.00;;;23.65;41.12
79150;BME280;68563;45.644;13.782;2023-09-08T02:13:45;101290.25;;;23.70;41.08
79150;BME280;68563;45.644;13.782;2023-09-08T02:16:14;101308.25;;;23.64;41.20
79150;BME280;68563;45.644;13.782;2023-09-08T02:18:44;101303.06;;;23.62;41.39
79150;BME280;68563;45.644;13.782;2023-09-08T02:21:09;101300.16;;;23.67;41.18
79150;BME280;68563;45.644;13.782;2023-09-08T02:23:35;101284.09;;;23.70;41.12
79150;BME280;68563;45.644;13.782;2023-09-08T02:26:00;101310.06;;;23.63;41.25
79150;BME280;68563;45.644;13.782;2023-09-08T02:28:26;101306.66;;;23.61;41.33
79150;BME280;68563;45.644;13.782;2023-09-08T02:30:51;101313.81;;;23.59;41.39
79150;BME280;68563;45.644;13.782;2023-09-08T02:33:16;101313.06;;;23.57;41.40
79150;BME280;68563;45.644;13.782;2023-09-08T02:35:43;101316.66;;;23.56;41.24
79150;BME280;68563;45.644;13.782;2023-09-08T02:38:08;101314.06;;;23.54;41.54
79150;BME280;68563;45.644;13.782;2023-09-08T02:40:33;101314.06;;;23.54;41.55
79150;BME280;68563;45.644;13.782;2023-09-08T02:43:03;101308.72;;;23.56;41.01
79150;BME280;68563;45.644;13.782;2023-09-08T02:45:28;101323.53;;;23.58;41.44
79150;BME280;68563;45.644;13.782;2023-09-08T02:47:54;101312.03;;;23.60;41.59
79150;BME280;68563;45.644;13.782;2023-09-08T02:50:20;101309.56;;;23.56;41.40
79150;BME280;68563;45.644;13.782;2023-09-08T02:52:46;101308.31;;;23.48;41.59
79150;BME280;68563;45.644;13.782;2023-09-08T02:55:11;101299.78;;;23.42;41.88
79150;BME280;68563;45.644;13.782;2023-09-08T02:57:38;101304.13;;;23.44;41.62
79150;BME280;68563;45.644;13.782;2023-09-08T03:00:04;101312.31;;;23.39;41.97
79150;BME280;68563;45.644;13.782;2023-09-08T03:02:30;101281.66;;;23.36;42.22
79150;BME280;68563;45.644;13.782;2023-09-08T03:04:56;101308.22;;;23.33;42.08
79150;BME280;68563;45.644;13.782;2023-09-08T03:07:21;101343.53;;;23.32;42.25
79150;BME280;68563;45.644;13.782;2023-09-08T03:09:47;101335.84;;;23.27;42.21
79150;BME280;68563;45.644;13.782;2023-09-08T03:12:13;101329.72;;;23.27;42.24
79150;BME280;68563;45.644;13.782;2023-09-08T03:14:38;101291.00;;;23.26;42.28
79150;BME280;68563;45.644;13.782;2023-09-08T03:17:04;101363.16;;;23.28;42.07
79150;BME280;68563;45.644;13.782;2023-09-08T03:19:29;101308.00;;;23.22;42.35
79150;BME280;68563;45.644;13.782;2023-09-08T03:21:54;101342.16;;;23.25;42.33
79150;BME280;68563;45.644;13.782;2023-09-08T03:24:20;101300.06;;;23.22;42.28
79150;BME280;68563;45.644;13.782;2023-09-08T03:26:45;101291.38;;;23.20;42.34
79150;BME280;68563;45.644;13.782;2023-09-08T03:29:10;101317.94;;;23.17;42.28
79150;BME280;68563;45.644;13.782;2023-09-08T03:31:36;101285.81;;;23.24;42.18
79150;BME280;68563;45.644;13.782;2023-09-08T03:34:01;101282.41;;;23.22;42.35
79150;BME280;68563;45.644;13.782;2023-09-08T03:36:27;101298.00;;;23.27;41.92
79150;BME280;68563;45.644;13.782;2023-09-08T03:38:53;101293.84;;;23.23;42.04
79150;BME280;68563;45.644;13.782;2023-09-08T03:41:18;101275.75;;;23.15;42.22
79150;BME280;68563;45.644;13.782;2023-09-08T03:43:43;101297.13;;;23.26;41.83
79150;BME280;68563;45.644;13.782;2023-09-08T03:46:09;101277.31;;;23.19;42.14
79150;BME280;68563;45.644;13.782;2023-09-08T03:48:34;101315.31;;;23.17;42.09
79150;BME280;68563;45.644;13.782;2023-09-08T03:50:59;101287.94;;;23.18;41.73
79150;BME280;68563;45.644;13.782;2023-09-08T03:53:25;101270.22;;;23.20;41.99
79150;BME280;68563;45.644;13.782;2023-09-08T03:55:51;101325.63;;;23.21;41.70
79150;BME280;68563;45.644;13.782;2023-09-08T03:58:16;101264.78;;;23.23;41.79
79150;BME280;68563;45.644;13.782;2023-09-08T04:00:42;101315.63;;;23.26;41.51
79150;BME280;68563;45.644;13.782;2023-09-08T04:03:08;101261.19;;;23.24;41.87
79150;BME280;68563;45.644;13.782;2023-09-08T04:05:34;101273.66;;;23.22;41.78
79150;BME280;68563;45.644;13.782;2023-09-08T04:07:59;101311.94;;;23.13;41.97
79150;BME280;68563;45.644;13.782;2023-09-08T04:10:25;101268.00;;;23.12;41.96
79150;BME280;68563;45.644;13.782;2023-09-08T04:12:51;101303.09;;;23.14;41.91
79150;BME280;68563;45.644;13.782;2023-09-08T04:15:16;101265.34;;;23.12;41.86
79150;BME280;68563;45.644;13.782;2023-09-08T04:17:41;101274.38;;;23.08;42.05
79150;BME280;68563;45.644;13.782;2023-09-08T04:20:07;101256.06;;;23.05;42.22
79150;BME280;68563;45.644;13.782;2023-09-08T04:22:34;101272.91;;;23.02;42.05
79150;BME280;68563;45.644;13.782;2023-09-08T04:25:00;101262.19;;;23.05;42.06
79150;BME280;68563;45.644;13.782;2023-09-08T04:27:26;101281.53;;;23.06;42.08
79150;BME280;68563;45.644;13.782;2023-09-08T04:29:51;101276.53;;;23.01;41.96
79150;BME280;68563;45.644;13.782;2023-09-08T04:32:16;101278.13;;;23.04;41.92
79150;BME280;68563;45.644;13.782;2023-09-08T04:34:42;101251.47;;;23.08;41.98
79150;BME280;68563;45.644;13.782;2023-09-08T04:37:08;101284.50;;;23.00;42.45
79150;BME280;68563;45.644;13.782;2023-09-08T04:39:34;101272.91;;;23.02;42.08
79150;BME280;68563;45.644;13.782;2023-09-08T04:42:00;101250.38;;;22.97;41.92
79150;BME280;68563;45.644;13.782;2023-09-08T04:44:26;101289.97;;;22.97;42.40
79150;BME280;68563;45.644;13.782;2023-09-08T04:46:52;101269.88;;;22.94;42.15
79150;BME280;68563;45.644;13.782;2023-09-08T04:49:18;101284.69;;;22.97;42.04
79150;BME280;68563;45.644;13.782;2023-09-08T04:51:44;101287.44;;;22.95;42.21
79150;BME280;68563;45.644;13.782;2023-09-08T04:54:09;101302.41;;;22.94;41.86
79150;BME280;68563;45.644;13.782;2023-09-08T04:56:35;101285.53;;;22.97;41.92
79150;BME280;68563;45.644;13.782;2023-09-08T04:59:00;101290.66;;;23.00;41.81
79150;BME280;68563;45.644;13.782;2023-09-08T05:01:26;101293.47;;;22.97;41.71
79150;BME280;68563;45.644;13.782;2023-09-08T05:03:52;101314.69;;;22.95;42.05
79150;BME280;68563;45.644;13.782;2023-09-08T05:06:18;101306.66;;;22.97;42.04
79150;BME280;68563;45.644;13.782;2023-09-08T05:08:43;101308.28;;;23.00;41.89
79150;BME280;68563;45.644;13.782;2023-09-08T05:11:09;101314.88;;;23.08;41.64
79150;BME280;68563;45.644;13.782;2023-09-08T05:13:35;101285.31;;;23.18;41.45
79150;BME280;68563;45.644;13.782;2023-09-08T05:16:01;101322.38;;;23.16;41.54
79150;BME280;68563;45.644;13.782;2023-09-08T05:18:36;101279.41;;;23.13;41.68
79150;BME280;68563;45.644;13.782;2023-09-08T05:21:02;101285.72;;;23.10;41.78
79150;BME280;68563;45.644;13.782;2023-09-08T05:23:27;101306.16;;;23.06;41.83
79150;BME280;68563;45.644;13.782;2023-09-08T05:25:53;101321.44;;;23.01;41.98
79150;BME280;68563;45.644;13.782;2023-09-08T05:28:19;101318.59;;;23.04;41.67
79150;BME280;68563;45.644;13.782;2023-09-08T05:30:44;101296.53;;;23.05;41.97
79150;BME280;68563;45.644;13.782;2023-09-08T05:33:10;101280.25;;;23.13;41.64
79150;BME280;68563;45.644;13.782;2023-09-08T05:35:35;101304.22;;;23.26;41.51
79150;BME280;68563;45.644;13.782;2023-09-08T05:38:01;101275.00;;;23.29;41.32
79150;BME280;68563;45.644;13.782;2023-09-08T05:40:26;101311.78;;;23.48;40.79
79150;BME280;68563;45.644;13.782;2023-09-08T05:42:52;101300.69;;;23.57;40.83
79150;BME280;68563;45.644;13.782;2023-09-08T05:45:18;101318.41;;;23.71;40.37
79150;BME280;68563;45.644;13.782;2023-09-08T05:47:43;101333.72;;;23.81;40.01
79150;BME280;68563;45.644;13.782;2023-09-08T05:50:09;101289.94;;;23.91;40.10
79150;BME280;68563;45.644;13.782;2023-09-08T05:52:34;101354.53;;;24.03;39.67
79150;BME280;68563;45.644;13.782;2023-09-08T05:55:00;101303.78;;;24.11;39.49
79150;BME280;68563;45.644;13.782;2023-09-08T05:57:25;101325.91;;;24.10;39.52
79150;BME280;68563;45.644;13.782;2023-09-08T05:59:50;101302.09;;;24.10;39.42
79150;BME280;68563;45.644;13.782;2023-09-08T06:02:16;101289.25;;;24.18;39.17
79150;BME280;68563;45.644;13.782;2023-09-08T06:04:41;101304.56;;;24.27;38.87
79150;BME280;68563;45.644;13.782;2023-09-08T06:07:06;101314.78;;;24.33;38.86
79150;BME280;68563;45.644;13.782;2023-09-08T06:09:32;101277.06;;;24.30;38.73
79150;BME280;68563;45.644;13.782;2023-09-08T06:11:57;101279.50;;;24.33;39.06
79150;BME280;68563;45.644;13.782;2023-09-08T06:14:23;101287.00;;;24.41;38.52
79150;BME280;68563;45.644;13.782;2023-09-08T06:16:48;101303.63;;;24.43;38.77
79150;BME280;68563;45.644;13.782;2023-09-08T06:19:13;101317.50;;;24.46;38.68
79150;BME280;68563;45.644;13.782;2023-09-08T06:21:39;101301.34;;;24.51;38.40
79150;BME280;68563;45.644;13.782;2023-09-08T06:24:05;101312.88;;;24.50;38.63
79150;BME280;68563;45.644;13.782;2023-09-08T06:26:30;101302.88;;;24.55;38.55
79150;BME280;68563;45.644;13.782;2023-09-08T06:28:55;101318.38;;;24.61;38.27
79150;BME280;68563;45.644;13.782;2023-09-08T06:31:21;101321.25;;;24.73;38.65
79150;BME280;68563;45.644;13.782;2023-09-08T06:33:46;101284.06;;;24.74;38.15
79150;BME280;68563;45.644;13.782;2023-09-08T06:36:12;101291.94;;;24.76;37.94
79150;BME280;68563;45.644;13.782;2023-09-08T06:38:38;101318.75;;;24.84;37.96
79150;BME280;68563;45.644;13.782;2023-09-08T06:41:12;101300.78;;;24.89;37.67
79150;BME280;68563;45.644;13.782;2023-09-08T06:43:38;101303.06;;;24.95;37.52
79150;BME280;68563;45.644;13.782;2023-09-08T06:46:03;101305.31;;;25.01;37.33
79150;BME280;68563;45.644;13.782;2023-09-08T06:48:30;101337.88;;;25.04;37.13
79150;BME280;68563;45.644;13.782;2023-09-08T06:50:56;101298.31;;;25.00;37.37
79150;BME280;68563;45.644;13.782;2023-09-08T06:53:24;101301.41;;;25.07;37.41
79150;BME280;68563;45.644;13.782;2023-09-08T06:55:50;101320.88;;;25.21;37.17
79150;BME280;68563;45.644;13.782;2023-09-08T06:58:16;101280.25;;;25.20;37.28
79150;BME280;68563;45.644;13.782;2023-09-08T07:00:41;101309.38;;;25.35;36.88
79150;BME280;68563;45.644;13.782;2023-09-08T07:03:07;101310.94;;;25.24;36.87
79150;BME280;68563;45.644;13.782;2023-09-08T07:05:34;101292.06;;;25.29;37.23
79150;BME280;68563;45.644;13.782;2023-09-08T07:07:59;101329.38;;;25.40;37.09
79150;BME280;68563;45.644;13.782;2023-09-08T07:10:24;101343.16;;;25.45;36.83
79150;BME280;68563;45.644;13.782;2023-09-08T07:12:50;101305.53;;;25.53;37.11
79150;BME280;68563;45.644;13.782;2023-09-08T07:15:15;101332.81;;;25.55;36.76
79150;BME280;68563;45.644;13.782;2023-09-08T07:17:41;101301.50;;;25.60;36.71
79150;BME280;68563;45.644;13.782;2023-09-08T07:20:07;101303.44;;;25.71;36.56
79150;BME280;68563;45.644;13.782;2023-09-08T07:22:33;101298.78;;;25.75;36.96
79150;BME280;68563;45.644;13.782;2023-09-08T07:24:58;101294.25;;;25.77;36.55
79150;BME280;68563;45.644;13.782;2023-09-08T07:27:24;101307.16;;;25.69;36.72
79150;BME280;68563;45.644;13.782;2023-09-08T07:29:49;101320.44;;;25.69;36.75
79150;BME280;68563;45.644;13.782;2023-09-08T07:32:15;101288.94;;;25.77;37.07
79150;BME280;68563;45.644;13.782;2023-09-08T07:34:41;101298.72;;;25.76;37.22
79150;BME280;68563;45.644;13.782;2023-09-08T07:37:07;101306.03;;;25.73;37.28
79150;BME280;68563;45.644;13.782;2023-09-08T07:39:32;101323.31;;;25.78;36.86
79150;BME280;68563;45.644;13.782;2023-09-08T07:41:58;101305.50;;;25.80;36.91
79150;BME280;68563;45.644;13.782;2023-09-08T07:44:24;101299.13;;;25.83;36.60
79150;BME280;68563;45.644;13.782;2023-09-08T07:46:49;101326.75;;;25.93;36.87
79150;BME280;68563;45.644;13.782;2023-09-08T07:49:17;101314.13;;;25.97;37.04
79150;BME280;68563;45.644;13.782;2023-09-08T07:51:44;101302.88;;;25.93;36.80
79150;BME280;68563;45.644;13.782;2023-09-08T07:54:10;101306.81;;;26.01;36.44
79150;BME280;68563;45.644;13.782;2023-09-08T07:56:35;101302.34;;;26.01;36.56
79150;BME280;68563;45.644;13.782;2023-09-08T07:59:00;101307.91;;;26.11;36.43
79150;BME280;68563;45.644;13.782;2023-09-08T08:01:26;101308.97;;;26.08;36.17
79150;BME280;68563;45.644;13.782;2023-09-08T08:03:51;101315.75;;;26.12;36.41
79150;BME280;68563;45.644;13.782;2023-09-08T08:06:17;101311.41;;;26.24;35.96
79150;BME280;68563;45.644;13.782;2023-09-08T08:08:42;101325.94;;;26.19;35.81
79150;BME280;68563;45.644;13.782;2023-09-08T08:11:12;101313.97;;;26.13;36.19
79150;BME280;68563;45.644;13.782;2023-09-08T08:13:38;101324.16;;;26.19;35.97
79150;BME280;68563;45.644;13.782;2023-09-08T08:16:04;101351.44;;;26.21;35.63
79150;BME280;68563;45.644;13.782;2023-09-08T08:18:29;101318.84;;;26.19;36.18
79150;BME280;68563;45.644;13.782;2023-09-08T08:20:54;101326.50;;;26.24;36.35
79150;BME280;68563;45.644;13.782;2023-09-08T08:23:20;101322.03;;;26.24;36.19
79150;BME280;68563;45.644;13.782;2023-09-08T08:25:45;101306.72;;;26.28;35.94
79150;BME280;68563;45.644;13.782;2023-09-08T08:28:11;101307.03;;;26.36;36.33
79150;BME280;68563;45.644;13.782;2023-09-08T08:30:36;101312.03;;;26.41;35.83
79150;BME280;68563;45.644;13.782;2023-09-08T08:33:01;101308.94;;;26.47;35.84
79150;BME280;68563;45.644;13.782;2023-09-08T08:35:27;101312.25;;;26.51;35.47
79150;BME280;68563;45.644;13.782;2023-09-08T08:37:52;101321.78;;;26.53;35.73
79150;BME280;68563;45.644;13.782;2023-09-08T08:40:18;101306.50;;;26.57;35.64
79150;BME280;68563;45.644;13.782;2023-09-08T08:42:43;101310.41;;;26.51;35.71
79150;BME280;68563;45.644;13.782;2023-09-08T08:45:10;101334.31;;;26.51;35.63
79150;BME280;68563;45.644;13.782;2023-09-08T08:47:36;101298.34;;;26.47;35.60
79150;BME280;68563;45.644;13.782;2023-09-08T08:50:02;101304.41;;;26.49;35.84
79150;BME280;68563;45.644;13.782;2023-09-08T08:52:29;101301.00;;;26.47;35.99
79150;BME280;68563;45.644;13.782;2023-09-08T08:54:55;101309.69;;;26.49;36.23
79150;BME280;68563;45.644;13.782;2023-09-08T08:57:21;101308.72;;;26.50;36.16
79150;BME280;68563;45.644;13.782;2023-09-08T08:59:47;101308.63;;;26.52;35.94
79150;BME280;68563;45.644;13.782;2023-09-08T09:02:14;101301.19;;;26.44;36.32
79150;BME280;68563;45.644;13.782;2023-09-08T09:04:40;101312.88;;;26.54;36.69
79150;BME280;68563;45.644;13.782;2023-09-08T09:07:07;101301.28;;;26.55;36.20
79150;BME280;68563;45.644;13.782;2023-09-08T09:09:33;101315.53;;;26.54;36.34
79150;BME280;68563;45.644;13.782;2023-09-08T09:11:58;101325.41;;;26.52;35.94
79150;BME280;68563;45.644;13.782;2023-09-08T09:14:25;101308.00;;;26.48;35.61
79150;BME280;68563;45.644;13.782;2023-09-08T09:16:50;101308.00;;;26.48;36.12
79150;BME280;68563;45.644;13.782;2023-09-08T09:19:21;101297.38;;;26.48;36.17
79150;BME280;68563;45.644;13.782;2023-09-08T09:21:53;101298.34;;;26.47;35.98
79150;BME280;68563;45.644;13.782;2023-09-08T09:24:35;101287.59;;;26.49;36.22
79150;BME280;68563;45.644;13.782;2023-09-08T09:27:04;101286.75;;;26.48;36.41
79150;BME280;68563;45.644;13.782;2023-09-08T09:29:31;101288.47;;;26.49;36.63
79150;BME280;68563;45.644;13.782;2023-09-08T09:32:05;101299.09;;;26.49;36.57
79150;BME280;68563;45.644;13.782;2023-09-08T09:34:31;101296.19;;;26.52;36.35
79150;BME280;68563;45.644;13.782;2023-09-08T09:36:57;101294.50;;;26.51;36.38
79150;BME280;68563;45.644;13.782;2023-09-08T09:39:24;101283.34;;;26.59;36.13
79150;BME280;68563;45.644;13.782;2023-09-08T09:41:57;101286.63;;;26.50;36.39
79150;BME280;68563;45.644;13.782;2023-09-08T09:44:23;101288.47;;;26.49;36.35
79150;BME280;68563;45.644;13.782;2023-09-08T09:46:51;101262.63;;;26.51;36.92
79150;BME280;68563;45.644;13.782;2023-09-08T09:49:17;101285.34;;;26.55;36.84
79150;BME280;68563;45.644;13.782;2023-09-08T09:51:45;101284.59;;;26.53;36.55
79150;BME280;68563;45.644;13.782;2023-09-08T09:54:12;101282.47;;;26.58;36.45
79150;BME280;68563;45.644;13.782;2023-09-08T09:56:39;101270.13;;;26.57;36.53
79150;BME280;68563;45.644;13.782;2023-09-08T09:59:07;101276.00;;;26.63;36.81
79150;BME280;68563;45.644;13.782;2023-09-08T10:01:33;101273.09;;;26.66;36.62
79150;BME280;68563;45.644;13.782;2023-09-08T10:03:59;101298.72;;;26.67;36.59
79150;BME280;68563;45.644;13.782;2023-09-08T10:06:26;101296.56;;;26.72;36.71
79150;BME280;68563;45.644;13.782;2023-09-08T10:08:51;101314.53;;;26.68;36.17
79150;BME280;68563;45.644;13.782;2023-09-08T10:11:21;101287.88;;;26.70;36.13
79150;BME280;68563;45.644;13.782;2023-09-08T10:13:50;101307.88;;;26.75;36.16
79150;BME280;68563;45.644;13.782;2023-09-08T10:16:16;101273.75;;;26.82;36.13
79150;BME280;68563;45.644;13.782;2023-09-08T10:18:44;101273.94;;;26.79;36.37
79150;BME280;68563;45.644;13.782;2023-09-08T10:21:12;101262.38;;;26.80;36.28
79150;BME280;68563;45.644;13.782;2023-09-08T10:23:44;101287.88;;;26.83;36.09
79150;BME280;68563;45.644;13.782;2023-09-08T10:26:16;101270.84;;;26.85;36.28
79150;BME280;68563;45.644;13.782;2023-09-08T10:28:43;101274.56;;;26.83;36.35
79150;BME280;68563;45.644;13.782;2023-09-08T10:31:09;101271.25;;;26.92;36.43
79150;BME280;68563;45.644;13.782;2023-09-08T10:33:35;101258.19;;;26.89;36.45
79150;BME280;68563;45.644;13.782;2023-09-08T10:36:02;101276.91;;;26.87;36.20
79150;BME280;68563;45.644;13.782;2023-09-08T10:38:34;101267.84;;;26.90;36.82
79150;BME280;68563;45.644;13.782;2023-09-08T10:43:40;101271.66;;;26.99;36.34
79150;BME280;68563;45.644;13.782;2023-09-08T10:46:10;101261.25;;;26.96;36.21
79150;BME280;68563;45.644;13.782;2023-09-08T10:48:42;101264.75;;;26.96;36.10
79150;BME280;68563;45.644;13.782;2023-09-08T10:51:13;101277.50;;;27.04;36.55
79150;BME280;68563;45.644;13.782;2023-09-08T10:53:39;101259.72;;;27.04;36.42
79150;BME280;68563;45.644;13.782;2023-09-08T10:56:05;101278.56;;;27.26;36.35
79150;BME280;68563;45.644;13.782;2023-09-08T10:58:33;101261.63;;;27.27;35.70
79150;BME280;68563;45.644;13.782;2023-09-08T11:01:00;101250.63;;;27.20;35.47
79150;BME280;68563;45.644;13.782;2023-09-08T11:03:28;101247.00;;;27.21;36.22
79150;BME280;68563;45.644;13.782;2023-09-08T11:06:10;101239.50;;;27.15;36.10
79150;BME280;68563;45.644;13.782;2023-09-08T11:08:38;101245.44;;;27.18;35.85
79150;BME280;68563;45.644;13.782;2023-09-08T11:11:04;101240.81;;;27.20;35.94
79150;BME280;68563;45.644;13.782;2023-09-08T11:13:29;101250.00;;;27.16;35.99
79150;BME280;68563;45.644;13.782;2023-09-08T11:15:55;101253.41;;;27.18;36.19
79150;BME280;68563;45.644;13.782;2023-09-08T11:18:27;101247.84;;;27.21;35.87
79150;BME280;68563;45.644;13.782;2023-09-08T11:20:54;101252.69;;;27.28;35.37
79150;BME280;68563;45.644;13.782;2023-09-08T11:23:24;101252.00;;;27.26;36.01
79150;BME280;68563;45.644;13.782;2023-09-08T11:25:50;101251.41;;;27.33;35.61
79150;BME280;68563;45.644;13.782;2023-09-08T11:28:17;101239.31;;;27.29;35.94
79150;BME280;68563;45.644;13.782;2023-09-08T11:30:46;101242.81;;;27.30;35.52
79150;BME280;68563;45.644;13.782;2023-09-08T11:33:19;101237.00;;;27.25;35.90
79150;BME280;68563;45.644;13.782;2023-09-08T11:35:49;101245.47;;;27.30;35.91
79150;BME280;68563;45.644;13.782;2023-09-08T11:38:14;101244.56;;;27.42;33.46
79150;BME280;68563;45.644;13.782;2023-09-08T11:40:40;101247.00;;;27.45;33.08
79150;BME280;68563;45.644;13.782;2023-09-08T11:43:06;101244.38;;;27.57;32.63
79150;BME280;68563;45.644;13.782;2023-09-08T11:45:34;101241.50;;;27.60;33.21
79150;BME280;68563;45.644;13.782;2023-09-08T11:48:00;101249.97;;;27.65;32.82
79150;BME280;68563;45.644;13.782;2023-09-08T11:50:26;101236.78;;;27.63;32.42
79150;BME280;68563;45.644;13.782;2023-09-08T11:52:53;101238.84;;;27.71;32.50
79150;BME280;68563;45.644;13.782;2023-09-08T11:55:20;101235.72;;;27.77;32.29
79150;BME280;68563;45.644;13.782;2023-09-08T11:57:48;101229.44;;;27.90;32.29
79150;BME280;68563;45.644;13.782;2023-09-08T12:00:16;101218.78;;;27.90;32.74
79150;BME280;68563;45.644;13.782;2023-09-08T12:02:44;101232.34;;;27.86;32.96
79150;BME280;68563;45.644;13.782;2023-09-08T12:05:33;101211.06;;;27.86;33.81
79150;BME280;68563;45.644;13.782;2023-09-08T12:07:58;101221.69;;;27.86;34.46
79150;BME280;68563;45.644;13.782;2023-09-08T12:10:25;101226.53;;;27.81;34.08
79150;BME280;68563;45.644;13.782;2023-09-08T12:12:52;101206.91;;;27.71;34.90
79150;BME280;68563;45.644;13.782;2023-09-08T12:15:39;101241.28;;;27.74;35.12
79150;BME280;68563;45.644;13.782;2023-09-08T12:18:12;101225.66;;;27.81;34.78
79150;BME280;68563;45.644;13.782;2023-09-08T12:20:39;101210.78;;;27.78;33.67
79150;BME280;68563;45.644;13.782;2023-09-08T12:23:06;101222.19;;;27.80;34.46
79150;BME280;68563;45.644;13.782;2023-09-08T12:25:44;101222.44;;;27.89;33.71
79150;BME280;68563;45.644;13.782;2023-09-08T12:28:10;101217.34;;;27.85;34.08
79150;BME280;68563;45.644;13.782;2023-09-08T12:30:35;101204.50;;;27.79;34.36
79150;BME280;68563;45.644;13.782;2023-09-08T12:33:01;101211.19;;;27.85;34.92
79150;BME280;68563;45.644;13.782;2023-09-08T12:35:27;101205.94;;;27.83;34.78
79150;BME280;68563;45.644;13.782;2023-09-08T12:37:57;101194.69;;;27.80;33.82
79150;BME280;68563;45.644;13.782;2023-09-08T12:40:27;101196.16;;;27.95;33.29
79150;BME280;68563;45.644;13.782;2023-09-08T12:42:53;101201.50;;;27.95;33.41
79150;BME280;68563;45.644;13.782;2023-09-08T12:45:20;101222.78;;;27.95;35.23